createdAt,value
2023-04-16T10:08:02.400Z,12.60
2023-04-16T10:10:31.005Z,12.80
2023-04-16T10:12:58.752Z,12.80
2023-04-16T10:17:56.049Z,13.00
2023-04-16T10:20:24.063Z,12.90
2023-04-16T10:22:51.824Z,12.60
2023-04-16T10:25:19.787Z,12.80
2023-04-16T10:27:47.906Z,12.70
2023-04-16T10:30:17.064Z,12.20
2023-04-16T10:32:45.859Z,12.50
2023-04-16T10:35:19.379Z,12.20
2023-04-16T10:37:47.592Z,12.40
2023-04-16T10:40:27.585Z,12.80
2023-04-16T10:42:59.380Z,13.70
2023-04-16T10:45:32.137Z,13.70
2023-04-16T10:47:59.953Z,13.80
2023-04-16T10:50:36.465Z,13.90
2023-04-16T10:53:26.283Z,13.60
2023-04-16T10:56:12.748Z,13.30
2023-04-16T10:58:40.008Z,13.00
2023-04-16T11:01:12.711Z,12.50
2023-04-16T11:04:02.382Z,12.70
2023-04-16T11:06:30.212Z,12.40
2023-04-16T11:08:57.555Z,12.60
2023-04-16T11:11:26.721Z,12.30
2023-04-16T11:13:57.116Z,12.30
2023-04-16T11:16:26.553Z,12.50
2023-04-16T11:18:55.058Z,12.70
2023-04-16T11:21:24.688Z,12.90
2023-04-16T11:23:53.572Z,13.80
2023-04-16T11:26:30.780Z,15.10
2023-04-16T11:28:59.081Z,15.70
2023-04-16T11:31:27.704Z,14.70
2023-04-16T11:33:57.305Z,14.40
2023-04-16T11:36:26.962Z,13.80
2023-04-16T11:39:03.577Z,14.80
2023-04-16T11:41:30.972Z,15.80
2023-04-16T11:43:58.252Z,16.70
2023-04-16T11:46:38.580Z,16.10
2023-04-16T11:49:06.896Z,18.80
2023-04-16T11:51:39.307Z,22.10
2023-04-16T11:54:08.443Z,16.10
2023-04-16T11:56:37.818Z,14.30
2023-04-16T11:59:09.537Z,13.30
2023-04-16T12:01:38.325Z,12.90
2023-04-16T12:04:06.551Z,12.60
2023-04-16T12:06:34.508Z,12.70
2023-04-16T12:09:25.371Z,12.80
2023-04-16T12:11:53.005Z,12.80
2023-04-16T12:14:20.772Z,12.80
2023-04-16T12:16:48.092Z,13.00
2023-04-16T12:19:15.689Z,12.90
2023-04-16T12:21:45.349Z,13.10
2023-04-16T12:24:14.963Z,13.00
2023-04-16T12:26:48.909Z,12.90
2023-04-16T12:29:17.829Z,13.00
2023-04-16T12:31:45.806Z,13.30
2023-04-16T12:34:15.387Z,13.70
2023-04-16T12:36:44.166Z,13.80
2023-04-16T12:39:12.307Z,13.60
2023-04-16T12:41:41.962Z,13.50
2023-04-16T12:44:13.296Z,13.30
2023-04-16T12:46:42.407Z,13.30
2023-04-16T12:49:12.064Z,13.20
2023-04-16T12:51:39.681Z,13.20
2023-04-16T12:54:08.274Z,13.30
2023-04-16T12:56:36.718Z,13.40
2023-04-16T12:59:04.089Z,13.50
2023-04-16T13:01:31.419Z,13.70
2023-04-16T13:03:58.870Z,14.40
2023-04-16T13:06:26.784Z,14.40
2023-04-16T13:08:55.027Z,15.00
2023-04-16T13:11:22.316Z,15.30
2023-04-16T13:13:49.555Z,15.20
2023-04-16T13:16:16.865Z,14.50
2023-04-16T13:18:44.118Z,14.70
2023-04-16T13:21:12.235Z,14.20
2023-04-16T13:23:40.625Z,14.10
2023-04-16T13:26:08.960Z,14.20
2023-04-16T13:28:36.093Z,14.50
2023-04-16T13:31:05.800Z,14.90
2023-04-16T13:33:33.429Z,15.40
2023-04-16T13:36:00.616Z,15.30
2023-04-16T13:38:27.911Z,14.90
2023-04-16T13:40:55.212Z,14.60
2023-04-16T13:43:23.065Z,14.60
2023-04-16T13:45:50.260Z,14.60
2023-04-16T13:48:18.086Z,14.40
2023-04-16T13:50:45.431Z,14.40
2023-04-16T13:53:12.792Z,14.60
2023-04-16T13:55:39.964Z,14.60
2023-04-16T13:58:07.454Z,14.20
2023-04-16T14:00:36.386Z,13.90
2023-04-16T14:03:06.219Z,13.70
2023-04-16T14:05:33.509Z,13.50
2023-04-16T14:08:01.059Z,13.30
2023-04-16T14:10:28.268Z,13.20
2023-04-16T14:12:55.927Z,12.90
2023-04-16T14:15:23.295Z,13.00
2023-04-16T14:17:50.968Z,12.80
2023-04-16T14:20:18.293Z,12.70
2023-04-16T14:22:46.976Z,12.50
2023-04-16T14:25:14.302Z,12.20
2023-04-16T14:27:41.648Z,12.20
2023-04-16T14:30:09.495Z,12.10
2023-04-16T14:32:37.395Z,12.20
2023-04-16T14:35:05.641Z,12.20
2023-04-16T14:37:35.942Z,12.10
2023-04-16T14:40:09.003Z,12.10
2023-04-16T14:42:37.427Z,12.10
2023-04-16T14:45:08.258Z,12.20
2023-04-16T14:47:37.953Z,12.10
2023-04-16T14:50:07.172Z,12.10
2023-04-16T14:52:34.436Z,12.10
2023-04-16T14:55:01.702Z,12.00
2023-04-16T14:57:28.894Z,12.00
2023-04-16T14:59:56.729Z,12.10
2023-04-16T15:02:24.114Z,12.20
2023-04-16T15:04:51.447Z,12.10
2023-04-16T15:07:18.603Z,12.10
2023-04-16T15:09:45.819Z,12.00
2023-04-16T15:12:13.114Z,12.00
2023-04-16T15:14:40.587Z,11.90
2023-04-16T15:17:08.286Z,11.90
2023-04-16T15:19:35.679Z,12.00
2023-04-16T15:22:02.887Z,11.90
2023-04-16T15:24:30.185Z,11.90
2023-04-16T15:26:57.449Z,12.00
2023-04-16T15:29:24.881Z,11.90
2023-04-16T15:31:52.143Z,11.80
2023-04-16T15:34:19.591Z,11.80
2023-04-16T15:36:46.941Z,11.70
2023-04-16T15:39:14.347Z,11.60
2023-04-16T15:42:00.550Z,11.50
2023-04-16T15:44:32.005Z,11.50
2023-04-16T15:47:00.687Z,11.40
2023-04-16T15:49:53.561Z,11.40
2023-04-16T15:52:20.941Z,10.10
2023-04-16T15:54:48.985Z,11.40
2023-04-16T15:57:16.213Z,11.40
2023-04-16T15:59:46.209Z,11.40
2023-04-16T16:02:20.736Z,11.40
2023-04-16T16:04:48.388Z,11.30
2023-04-16T16:07:20.200Z,11.30
2023-04-16T16:09:48.384Z,11.30
2023-04-16T16:12:15.614Z,11.30
2023-04-16T16:14:44.741Z,11.40
2023-04-16T16:17:12.053Z,11.40
2023-04-16T16:19:39.390Z,11.40
2023-04-16T16:22:06.801Z,11.40
2023-04-16T16:24:34.114Z,11.40
2023-04-16T16:27:01.950Z,11.30
2023-04-16T16:29:29.216Z,11.30
2023-04-16T16:31:56.503Z,11.30
2023-04-16T16:34:23.764Z,11.30
2023-04-16T16:36:50.923Z,11.30
2023-04-16T16:39:18.334Z,11.30
2023-04-16T16:41:45.886Z,11.30
2023-04-16T16:44:13.248Z,11.20
2023-04-16T16:46:40.568Z,11.20
2023-04-16T16:49:10.143Z,11.20
2023-04-16T16:51:38.429Z,11.20
2023-04-16T16:54:07.726Z,11.10
2023-04-16T16:56:35.106Z,11.10
2023-04-16T16:59:02.967Z,11.10
2023-04-16T17:01:31.694Z,11.10
2023-04-16T17:04:00.552Z,11.10
2023-04-16T17:06:28.796Z,11.00
2023-04-16T17:08:56.252Z,11.00
2023-04-16T17:11:27.392Z,11.00
2023-04-16T17:13:55.127Z,11.00
2023-04-16T17:16:23.979Z,10.90
2023-04-16T17:18:52.396Z,10.90
2023-04-16T17:21:19.685Z,10.90
2023-04-16T17:23:48.098Z,10.90
2023-04-16T17:26:16.443Z,10.80
